Time;durP1;ratioP1;P1;durP2;ratioP2;P2;SDS_P1;SDS_P2;PMS_P1;PMS_P2;Temp;Humidity;BMP_temperature;BMP_pressure;BME280_temperature;BME280_humidity;BME280_pressure;Samples;Min_cycle;Max_cycle;Signal;HPM_P1;HPM_P2
2023/02/18 00:01:58;;;;;;;2.60;1.10;;;12.00;99.90;;;;;;5070918;28;20432;-75
2023/02/18 00:04:24;;;;;;;1.57;1.20;;;11.80;99.90;;;;;;5072333;28;20472;-75
2023/02/18 00:06:50;;;;;;;1.30;1.20;;;12.10;99.90;;;;;;5061633;28;20382;-74
2023/02/18 00:09:15;;;;;;;1.83;1.00;;;12.20;99.90;;;;;;5061349;28;20478;-75
2023/02/18 00:11:41;;;;;;;1.43;1.20;;;12.30;99.90;;;;;;5072538;28;20418;-75
2023/02/18 00:14:11;;;;;;;1.33;1.23;;;12.30;99.90;;;;;;5072009;28;20399;-75
2023/02/18 00:16:36;;;;;;;1.40;1.30;;;11.60;99.90;;;;;;5071861;28;20896;-74
2023/02/18 00:19:05;;;;;;;1.30;1.20;;;12.20;99.90;;;;;;5072331;28;20380;-74
2023/02/18 00:21:32;;;;;;;1.10;1.00;;;11.90;99.90;;;;;;5071812;28;20407;-74
2023/02/18 00:23:58;;;;;;;1.30;1.20;;;11.90;99.90;;;;;;5070419;28;20616;-75
2023/02/18 00:26:24;;;;;;;1.40;1.30;;;12.20;99.90;;;;;;5071445;28;20485;-75
2023/02/18 00:28:53;;;;;;;2.00;1.50;;;12.00;99.90;;;;;;5071915;28;20387;-75
2023/02/18 00:31:24;;;;;;;2.70;1.60;;;11.90;99.90;;;;;;5071340;28;20399;-76
2023/02/18 00:33:49;;;;;;;1.70;1.60;;;11.70;99.90;;;;;;5071775;28;20372;-75
2023/02/18 00:36:17;;;;;;;1.63;1.50;;;12.00;99.90;;;;;;5071106;28;20754;-76
2023/02/18 00:38:48;;;;;;;1.88;1.67;;;12.40;99.90;;;;;;5071563;28;20423;-75
2023/02/18 00:41:15;;;;;;;2.20;1.60;;;12.30;99.90;;;;;;5071200;28;20404;-75
2023/02/18 00:43:41;;;;;;;1.60;1.30;;;11.70;99.90;;;;;;5071516;28;20384;-75
2023/02/18 00:46:06;;;;;;;1.52;1.20;;;12.20;99.90;;;;;;5071193;28;20493;-76
2023/02/18 00:48:33;;;;;;;1.50;1.40;;;11.80;99.90;;;;;;5071174;28;20384;-75
2023/02/18 00:50:59;;;;;;;1.30;1.20;;;12.10;99.90;;;;;;5071396;28;20808;-77
2023/02/18 00:53:26;;;;;;;1.77;1.50;;;11.90;99.90;;;;;;5071154;28;20750;-76
2023/02/18 00:55:51;;;;;;;1.90;1.50;;;12.00;99.90;;;;;;5071084;28;20384;-77
2023/02/18 00:58:17;;;;;;;1.40;1.30;;;11.80;99.90;;;;;;5069708;28;20404;-76
2023/02/18 01:00:45;;;;;;;1.42;1.30;;;;;;;;;;5070255;28;20449;-77
2023/02/18 01:03:11;;;;;;;1.50;1.10;;;12.10;99.90;;;;;;5070982;28;20932;-77
2023/02/18 01:05:38;;;;;;;1.20;1.10;;;12.20;99.90;;;;;;5070345;28;20389;-77
2023/02/18 01:08:05;;;;;;;1.00;0.90;;;11.90;99.90;;;;;;5061895;28;20450;-76
2023/02/18 01:10:31;;;;;;;1.00;0.90;;;11.50;99.90;;;;;;5070703;28;20396;-76
2023/02/18 01:12:56;;;;;;;1.20;0.90;;;11.70;99.90;;;;;;5071054;28;20814;-76
2023/02/18 01:15:22;;;;;;;1.53;1.20;;;12.10;99.90;;;;;;5070842;28;20467;-76
2023/02/18 01:17:48;;;;;;;1.15;1.05;;;12.00;99.90;;;;;;5070373;28;20746;-76
2023/02/18 01:20:14;;;;;;;1.10;1.00;;;11.60;99.90;;;;;;5070552;28;20438;-77
2023/02/18 01:22:40;;;;;;;0.88;0.80;;;11.80;99.90;;;;;;5071058;28;20877;-76
2023/02/18 01:25:07;;;;;;;1.20;1.10;;;11.70;99.90;;;;;;5070681;28;20375;-77
2023/02/18 01:27:32;;;;;;;1.65;1.20;;;12.00;99.90;;;;;;5070393;28;20388;-76
2023/02/18 01:29:58;;;;;;;1.30;1.20;;;11.50;99.90;;;;;;5070587;28;20376;-77
2023/02/18 01:32:23;;;;;;;1.70;1.60;;;12.40;99.90;;;;;;5070308;28;20411;-77
2023/02/18 01:34:49;;;;;;;1.30;1.20;;;11.60;99.90;;;;;;5070206;28;20398;-76
2023/02/18 01:37:15;;;;;;;1.52;1.10;;;11.50;99.90;;;;;;5068980;28;20372;-77
2023/02/18 01:39:40;;;;;;;1.30;1.20;;;11.90;99.90;;;;;;5070488;28;20372;-77
2023/02/18 01:42:06;;;;;;;1.48;1.20;;;;;;;;;;5070604;28;20908;-77
2023/02/18 01:44:33;;;;;;;1.60;1.10;;;12.10;99.90;;;;;;5069203;28;20485;-77
2023/02/18 01:46:58;;;;;;;1.30;1.20;;;12.00;99.90;;;;;;5070279;28;20781;-76
2023/02/18 01:49:32;;;;;;;1.10;1.00;;;11.50;99.90;;;;;;5068644;28;20379;-77
2023/02/18 01:52:08;;;;;;;0.98;0.88;;;11.70;99.90;;;;;;5070548;28;20379;-77
2023/02/18 01:54:38;;;;;;;1.40;0.95;;;11.90;99.90;;;;;;5070317;28;20445;-76
2023/02/18 01:57:11;;;;;;;1.33;1.10;;;12.00;99.90;;;;;;5070112;28;20388;-76
2023/02/18 01:59:44;;;;;;;1.50;0.65;;;12.20;99.90;;;;;;5068777;28;20379;-76
2023/02/18 02:02:17;;;;;;;1.23;1.00;;;11.90;99.90;;;;;;5070478;28;20395;-77
2023/02/18 02:04:43;;;;;;;0.85;0.80;;;12.20;99.90;;;;;;5068962;28;20757;-76
2023/02/18 02:07:09;;;;;;;0.80;0.70;;;12.00;99.90;;;;;;5057104;28;20886;-76
2023/02/18 02:09:36;;;;;;;1.10;0.90;;;11.80;99.90;;;;;;5085797;28;20429;-76
2023/02/18 02:12:27;;;;;;;0.70;0.60;;;11.90;99.90;;;;;;5070276;28;20412;-76
2023/02/18 02:15:05;;;;;;;0.70;0.70;;;11.80;99.90;;;;;;5070233;28;20372;-76
2023/02/18 02:17:37;;;;;;;0.90;0.60;;;12.20;99.90;;;;;;5069888;28;20881;-76
2023/02/18 02:20:43;;;;;;;0.85;0.75;;;11.60;99.90;;;;;;5069573;28;20430;-76
2023/02/18 02:23:24;;;;;;;0.80;0.60;;;11.70;99.90;;;;;;5070294;28;20845;-76
2023/02/18 02:26:23;;;;;;;1.05;0.80;;;12.20;99.90;;;;;;5069415;28;20395;-76
2023/02/18 02:29:16;;;;;;;1.90;0.83;;;12.30;99.90;;;;;;5069694;28;20441;-76
2023/02/18 02:31:45;;;;;;;0.70;0.60;;;12.10;99.90;;;;;;5070169;28;20996;-76
2023/02/18 02:34:33;;;;;;;1.40;0.90;;;12.50;99.90;;;;;;5069676;28;20482;-77
2023/02/18 02:37:13;;;;;;;0.70;0.70;;;11.80;99.90;;;;;;5069385;28;20379;-76
2023/02/18 02:39:44;;;;;;;1.65;1.00;;;12.30;99.90;;;;;;5069676;28;20470;-76
2023/02/18 02:42:25;;;;;;;1.10;0.93;;;11.90;99.90;;;;;;5070024;28;20395;-76
2023/02/18 02:44:56;;;;;;;1.20;1.00;;;12.10;99.90;;;;;;5069669;28;20387;-76
2023/02/18 02:47:47;;;;;;;0.80;0.80;;;11.80;99.90;;;;;;5067843;28;20445;-77
2023/02/18 02:50:24;;;;;;;0.90;0.70;;;12.20;99.90;;;;;;5062788;28;20491;-77
2023/02/18 02:52:56;;;;;;;0.90;0.80;;;11.70;99.90;;;;;;5069685;28;20500;-77
2023/02/18 02:55:21;;;;;;;1.00;0.90;;;11.90;99.90;;;;;;5071434;28;20395;-77
2023/02/18 02:57:50;;;;;;;0.80;0.60;;;12.00;99.90;;;;;;5073386;28;20746;-76
2023/02/18 03:00:26;;;;;;;0.90;0.80;;;12.10;99.90;;;;;;5073635;28;20822;-77
2023/02/18 03:03:02;;;;;;;1.90;0.90;;;12.00;99.90;;;;;;5073018;28;20407;-76
2023/02/18 03:05:46;;;;;;;0.70;0.70;;;12.20;99.90;;;;;;5072986;28;20387;-77
2023/02/18 03:08:53;;;;;;;1.80;0.75;;;12.20;99.90;;;;;;5053171;28;20373;-76
2023/02/18 03:11:19;;;;;;;0.95;0.77;;;12.30;99.90;;;;;;5049326;28;20396;-76
2023/02/18 03:14:02;;;;;;;0.85;0.75;;;12.30;99.90;;;;;;5054061;28;20381;-77
2023/02/18 03:16:50;;;;;;;0.70;0.70;;;12.20;99.90;;;;;;5072957;28;20384;-76
2023/02/18 03:19:19;;;;;;;1.02;0.85;;;12.40;99.90;;;;;;5073387;28;20384;-76
2023/02/18 03:21:49;;;;;;;1.30;1.10;;;11.70;99.90;;;;;;5072976;28;20407;-76
2023/02/18 03:24:26;;;;;;;1.17;0.95;;;12.00;99.90;;;;;;5072955;28;20482;-76
2023/02/18 03:26:56;;;;;;;1.00;0.80;;;11.60;99.90;;;;;;5072714;28;20652;-77
2023/02/18 03:29:22;;;;;;;1.10;0.90;;;12.00;99.90;;;;;;5073368;28;20391;-76
2023/02/18 03:31:52;;;;;;;0.90;0.90;;;12.00;99.90;;;;;;5072744;28;20415;-77
2023/02/18 03:34:25;;;;;;;0.82;0.80;;;12.00;99.90;;;;;;5072666;28;20406;-76
2023/02/18 03:36:52;;;;;;;0.93;0.90;;;11.70;99.90;;;;;;5072521;28;20419;-76
2023/02/18 03:39:22;;;;;;;1.23;0.88;;;12.00;99.90;;;;;;5072511;28;20400;-76
2023/02/18 03:41:48;;;;;;;1.08;0.98;;;12.10;99.90;;;;;;5072635;28;20766;-76
2023/02/18 03:44:14;;;;;;;1.38;0.93;;;11.90;99.90;;;;;;5073322;28;20383;-76
2023/02/18 03:46:43;;;;;;;0.80;0.80;;;11.90;99.90;;;;;;5072544;28;20384;-76
2023/02/18 03:49:11;;;;;;;1.00;0.90;;;12.10;99.90;;;;;;5072610;28;20399;-76
2023/02/18 03:51:37;;;;;;;0.70;0.70;;;11.90;99.90;;;;;;5072706;28;20391;-76
2023/02/18 03:54:02;;;;;;;1.50;0.87;;;11.80;99.90;;;;;;5072490;28;20387;-77
2023/02/18 03:56:28;;;;;;;1.10;0.83;;;12.40;99.90;;;;;;5072080;28;20391;-76
2023/02/18 03:58:53;;;;;;;1.13;0.90;;;12.40;99.90;;;;;;5072483;28;20388;-76
2023/02/18 04:01:19;;;;;;;1.10;0.90;;;12.30;99.90;;;;;;5072452;28;20400;-77
2023/02/18 04:03:45;;;;;;;0.93;0.85;;;12.00;99.90;;;;;;5072538;28;20901;-76
2023/02/18 04:06:11;;;;;;;0.90;0.80;;;12.30;99.90;;;;;;5065695;28;20436;-76
2023/02/18 04:08:36;;;;;;;1.20;1.00;;;12.20;99.90;;;;;;5052191;28;20480;-76
2023/02/18 04:11:03;;;;;;;1.10;1.00;;;12.50;99.90;;;;;;5052199;28;20852;-76
2023/02/18 04:13:29;;;;;;;1.00;0.90;;;12.40;99.90;;;;;;5052404;28;20469;-76
2023/02/18 04:15:55;;;;;;;0.82;0.80;;;12.40;99.90;;;;;;5064286;28;20487;-76
2023/02/18 04:18:21;;;;;;;1.40;0.85;;;11.90;99.90;;;;;;5071616;28;20431;-77
2023/02/18 04:20:46;;;;;;;2.00;0.90;;;12.00;99.90;;;;;;5071879;28;20484;-77
2023/02/18 04:23:12;;;;;;;1.00;0.90;;;11.80;99.90;;;;;;5071937;28;20384;-76
2023/02/18 04:25:37;;;;;;;1.50;1.00;;;12.20;99.90;;;;;;5071443;28;20439;-77
2023/02/18 04:28:03;;;;;;;1.20;0.90;;;12.30;99.90;;;;;;5071619;28;20403;-77
2023/02/18 04:30:29;;;;;;;0.63;0.63;;;11.80;99.90;;;;;;5070349;28;20837;-77
2023/02/18 04:32:54;;;;;;;1.20;1.10;;;11.60;99.90;;;;;;5070657;28;20411;-77
2023/02/18 04:35:20;;;;;;;1.02;0.93;;;12.20;99.90;;;;;;5071718;28;20753;-76
2023/02/18 04:37:45;;;;;;;1.00;0.70;;;12.10;99.90;;;;;;5071412;28;20384;-76
2023/02/18 04:40:11;;;;;;;0.77;0.77;;;11.80;99.90;;;;;;5071904;28;20379;-77
2023/02/18 04:42:37;;;;;;;1.10;1.00;;;12.00;99.90;;;;;;5071820;28;20376;-76
2023/02/18 04:45:03;;;;;;;1.10;1.00;;;12.00;99.90;;;;;;5071731;28;20916;-77
2023/02/18 04:47:29;;;;;;;1.23;0.90;;;12.00;99.90;;;;;;5071155;28;20761;-76
2023/02/18 04:49:55;;;;;;;1.33;1.00;;;12.00;99.90;;;;;;5071945;28;20380;-76
2023/02/18 04:52:20;;;;;;;1.40;0.80;;;12.10;99.90;;;;;;5071616;28;20384;-77
2023/02/18 04:54:46;;;;;;;1.50;0.70;;;11.90;99.90;;;;;;5071729;28;20399;-76
2023/02/18 04:57:11;;;;;;;2.00;0.80;;;12.00;99.90;;;;;;5071203;28;20383;-77
2023/02/18 04:59:37;;;;;;;1.10;1.00;;;12.20;99.90;;;;;;5071234;28;20856;-77
2023/02/18 05:02:03;;;;;;;1.00;0.90;;;11.80;99.90;;;;;;5071214;28;20751;-76
2023/02/18 05:04:29;;;;;;;1.20;1.00;;;11.90;99.90;;;;;;5094460;22;20451;-78
2023/02/18 05:06:55;;;;;;;0.85;0.80;;;12.10;99.90;;;;;;5061686;28;20440;-78
2023/02/18 05:09:20;;;;;;;1.20;0.87;;;12.30;99.90;;;;;;5052676;28;20377;-78
2023/02/18 05:11:49;;;;;;;0.90;0.80;;;11.90;99.90;;;;;;5059829;28;20420;-76
2023/02/18 05:14:15;;;;;;;2.10;0.70;;;12.20;99.90;;;;;;5051336;28;20485;-77
2023/02/18 05:16:40;;;;;;;1.05;0.75;;;12.40;99.90;;;;;;5070063;28;20395;-77
2023/02/18 05:19:06;;;;;;;0.90;0.80;;;12.60;99.90;;;;;;5072105;28;20392;-78
2023/02/18 05:21:32;;;;;;;1.00;0.85;;;13.70;99.90;;;;;;5072375;28;20416;-78
2023/02/18 05:23:58;;;;;;;0.87;0.70;;;12.20;99.90;;;;;;5071321;28;20394;-78
2023/02/18 05:26:23;;;;;;;1.00;0.70;;;11.90;99.90;;;;;;5071981;28;20392;-78
2023/02/18 05:28:49;;;;;;;0.97;0.87;;;11.80;99.90;;;;;;5072886;28;20492;-78
2023/02/18 05:31:15;;;;;;;1.08;0.88;;;12.30;99.90;;;;;;5072265;28;20471;-78
2023/02/18 05:33:40;;;;;;;0.75;0.75;;;12.50;99.90;;;;;;5071592;28;20403;-78
2023/02/18 05:36:06;;;;;;;0.70;0.60;;;12.00;99.90;;;;;;5069090;28;20431;-78
2023/02/18 05:38:32;;;;;;;1.00;0.88;;;12.20;99.90;;;;;;5072310;28;20395;-78
2023/02/18 05:40:58;;;;;;;0.85;0.70;;;11.50;99.90;;;;;;5071806;28;20407;-78
2023/02/18 05:43:23;;;;;;;0.70;0.70;;;12.00;99.90;;;;;;5071726;28;20392;-78
2023/02/18 05:45:49;;;;;;;0.83;0.80;;;11.50;99.90;;;;;;5070228;28;20830;-78
2023/02/18 05:48:14;;;;;;;1.47;0.80;;;12.10;99.90;;;;;;5072140;28;20383;-78
2023/02/18 05:50:40;;;;;;;0.90;0.70;;;12.20;99.90;;;;;;5071699;28;20384;-78
2023/02/18 05:53:06;;;;;;;0.82;0.80;;;12.00;99.90;;;;;;5070627;28;20387;-78
2023/02/18 05:55:36;;;;;;;1.30;0.90;;;11.70;99.90;;;;;;5071219;28;20437;-77
2023/02/18 05:58:02;;;;;;;0.80;0.60;;;12.10;99.90;;;;;;5072028;28;20388;-78
2023/02/18 06:00:28;;;;;;;0.70;0.70;;;14.20;99.90;;;;;;5071512;28;20406;-80
2023/02/18 06:02:54;;;;;;;2.00;1.00;;;12.00;99.90;;;;;;5071569;28;20392;-78
2023/02/18 06:05:19;;;;;;;1.15;0.90;;;11.80;99.90;;;;;;5071921;28;20375;-77
2023/02/18 06:07:45;;;;;;;1.10;0.80;;;11.80;99.90;;;;;;5053817;28;20883;-78
2023/02/18 06:10:10;;;;;;;1.30;0.83;;;11.70;99.90;;;;;;5053464;28;20385;-78
2023/02/18 06:12:36;;;;;;;1.00;0.80;;;12.20;99.90;;;;;;5071950;28;20379;-78
2023/02/18 06:15:02;;;;;;;1.00;0.83;;;14.40;99.90;;;;;;5071510;28;20384;-78
2023/02/18 06:17:27;;;;;;;0.60;0.57;;;12.20;99.90;;;;;;5071774;28;20473;-78
2023/02/18 06:19:53;;;;;;;0.90;0.80;;;12.20;99.90;;;;;;5070582;28;20395;-78
2023/02/18 06:22:18;;;;;;;1.30;0.83;;;12.30;99.90;;;;;;5071722;28;20419;-78
2023/02/18 06:24:44;;;;;;;1.10;0.70;;;12.00;99.90;;;;;;5072076;28;20922;-79
2023/02/18 06:27:09;;;;;;;1.95;0.80;;;12.00;99.90;;;;;;5071335;28;20417;-78
2023/02/18 06:29:35;;;;;;;1.55;0.90;;;12.20;99.90;;;;;;5072908;28;20753;-78
2023/02/18 06:32:01;;;;;;;0.98;0.65;;;12.30;99.90;;;;;;5074815;28;20957;-78
2023/02/18 06:34:27;;;;;;;1.23;0.80;;;12.40;99.90;;;;;;5075097;28;20391;-79
2023/02/18 06:36:52;;;;;;;0.90;0.80;;;12.40;99.90;;;;;;5075483;28;20816;-78
2023/02/18 06:39:18;;;;;;;0.60;0.60;;;12.40;99.90;;;;;;5074730;28;20392;-79
2023/02/18 06:41:43;;;;;;;1.00;0.90;;;11.70;99.90;;;;;;5075738;28;20494;-79
2023/02/18 06:44:10;;;;;;;0.90;0.90;;;11.90;99.90;;;;;;5073845;28;20392;-78
2023/02/18 06:46:36;;;;;;;1.17;0.80;;;12.20;99.90;;;;;;5075428;28;20427;-79
2023/02/18 06:49:01;;;;;;;1.05;0.80;;;12.00;99.90;;;;;;5076597;28;20807;-77
2023/02/18 06:51:27;;;;;;;0.98;0.90;;;12.20;99.90;;;;;;5074698;28;20742;-77
2023/02/18 06:53:52;;;;;;;2.00;1.30;;;12.40;99.90;;;;;;5072744;28;20388;-77
2023/02/18 06:56:18;;;;;;;1.10;0.90;;;12.10;99.90;;;;;;5075272;28;21114;-76
2023/02/18 06:58:43;;;;;;;1.00;0.80;;;11.50;99.90;;;;;;5080700;28;20451;-77
2023/02/18 07:01:09;;;;;;;0.70;0.60;;;11.80;99.90;;;;;;5084268;28;20498;-78
2023/02/18 07:03:34;;;;;;;1.10;0.90;;;12.30;99.90;;;;;;5083616;28;20487;-78
2023/02/18 07:06:00;;;;;;;1.20;0.60;;;12.30;99.90;;;;;;5073949;28;20421;-77
2023/02/18 07:08:26;;;;;;;0.80;0.60;;;12.20;99.90;;;;;;5054649;28;20894;-75
2023/02/18 07:10:51;;;;;;;0.60;0.52;;;13.10;99.90;;;;;;5073376;28;20787;-77
2023/02/18 07:13:17;;;;;;;1.10;0.70;;;12.40;99.90;;;;;;5073646;28;20379;-77
2023/02/18 07:15:42;;;;;;;0.60;0.52;;;12.60;99.90;;;;;;5073108;28;20431;-77
2023/02/18 07:18:08;;;;;;;0.98;0.80;;;12.20;99.90;;;;;;5073756;28;20429;-77
2023/02/18 07:20:34;;;;;;;0.90;0.77;;;12.60;99.90;;;;;;5073836;28;20402;-78
2023/02/18 07:22:59;;;;;;;0.80;0.80;;;12.30;99.90;;;;;;5072445;28;20388;-76
2023/02/18 07:25:25;;;;;;;1.03;0.93;;;;;;;;;;5072621;28;20883;-78
2023/02/18 07:27:51;;;;;;;0.90;0.77;;;12.70;99.90;;;;;;5073660;28;20448;-78
2023/02/18 07:30:18;;;;;;;1.30;0.70;;;12.50;99.90;;;;;;5074080;28;20436;-77
2023/02/18 07:32:44;;;;;;;0.60;0.55;;;12.90;99.90;;;;;;5072727;28;20396;-76
2023/02/18 07:35:13;;;;;;;0.75;0.60;;;12.50;99.90;;;;;;5072581;28;20391;-79
2023/02/18 07:37:39;;;;;;;1.80;0.80;;;12.70;99.90;;;;;;5072491;28;20862;-78
2023/02/18 07:40:05;;;;;;;0.70;0.70;;;12.20;99.90;;;;;;5074014;28;20392;-78
2023/02/18 07:42:30;;;;;;;1.50;0.70;;;13.00;99.90;;;;;;5073850;28;20476;-78
2023/02/18 07:44:56;;;;;;;1.93;0.70;;;12.50;99.90;;;;;;5072330;28;20808;-77
2023/02/18 07:47:22;;;;;;;2.10;0.70;;;12.70;99.90;;;;;;5073615;28;20406;-78
2023/02/18 07:49:47;;;;;;;3.50;0.70;;;12.60;99.90;;;;;;5072437;28;21256;-78
2023/02/18 07:52:14;;;;;;;1.30;0.70;;;13.10;99.90;;;;;;5078177;28;20375;-78
2023/02/18 07:54:40;;;;;;;0.70;0.52;;;13.00;99.90;;;;;;5075835;28;20379;-78
2023/02/18 07:57:05;;;;;;;1.50;0.70;;;12.90;99.90;;;;;;5074614;28;20383;-79
2023/02/18 07:59:31;;;;;;;1.20;0.70;;;12.70;99.90;;;;;;5078351;28;20415;-78
2023/02/18 08:01:56;;;;;;;2.27;0.50;;;12.60;99.90;;;;;;5081292;28;20408;-77
2023/02/18 08:04:22;;;;;;;0.73;0.60;;;12.90;99.90;;;;;;5080913;28;20445;-78
2023/02/18 08:06:52;;;;;;;0.55;0.50;;;;;;;;;;5068145;28;20748;-78
2023/02/18 08:09:18;;;;;;;0.50;0.50;;;13.30;99.90;;;;;;5072440;28;20482;-78
2023/02/18 08:11:43;;;;;;;0.60;0.50;;;12.80;99.90;;;;;;5076105;28;20386;-78
2023/02/18 08:14:09;;;;;;;0.70;0.60;;;13.20;99.90;;;;;;5074008;28;20391;-78
2023/02/18 08:16:35;;;;;;;2.50;0.60;;;12.90;99.90;;;;;;5073735;28;20396;-78
2023/02/18 08:19:02;;;;;;;0.80;0.60;;;12.80;99.90;;;;;;5072600;28;20400;-78
2023/02/18 08:21:28;;;;;;;0.70;0.50;;;13.00;99.90;;;;;;5072644;28;20447;-78
2023/02/18 08:23:53;;;;;;;2.90;0.60;;;12.80;99.90;;;;;;5073457;28;20391;-78
2023/02/18 08:26:20;;;;;;;0.70;0.50;;;12.80;99.90;;;;;;5076736;28;20468;-77
2023/02/18 08:28:46;;;;;;;1.52;0.80;;;12.40;99.90;;;;;;5080292;28;20387;-77
2023/02/18 08:31:22;;;;;;;1.17;0.60;;;12.90;99.90;;;;;;5077629;28;20896;-78
2023/02/18 08:33:47;;;;;;;0.60;0.60;;;12.70;99.90;;;;;;5080785;28;20384;-77
2023/02/18 08:36:13;;;;;;;0.80;0.70;;;14.40;99.90;;;;;;5083791;28;20418;-78
2023/02/18 08:38:39;;;;;;;1.05;0.60;;;13.00;99.90;;;;;;5072281;28;20749;-79
2023/02/18 08:41:06;;;;;;;0.60;0.60;;;12.80;99.90;;;;;;5071163;28;20809;-78
2023/02/18 08:43:31;;;;;;;1.15;0.90;;;13.10;99.90;;;;;;5074020;28;20383;-77
2023/02/18 08:45:57;;;;;;;0.80;0.70;;;12.70;99.90;;;;;;5074938;28;20436;-77
2023/02/18 08:48:24;;;;;;;0.80;0.70;;;13.20;99.90;;;;;;5072963;28;20510;-78
2023/02/18 08:50:49;;;;;;;0.70;0.70;;;12.60;99.90;;;;;;5072561;28;20391;-78
2023/02/18 08:53:15;;;;;;;1.50;0.90;;;13.00;99.90;;;;;;5072632;28;20568;-78
2023/02/18 08:55:41;;;;;;;2.35;1.20;;;13.20;99.90;;;;;;5073277;28;20885;-78
2023/02/18 08:58:07;;;;;;;0.98;0.77;;;13.20;99.90;;;;;;5073907;28;20386;-78
2023/02/18 09:00:33;;;;;;;1.90;0.90;;;13.20;99.90;;;;;;5072436;28;20752;-77
2023/02/18 09:02:58;;;;;;;1.30;0.80;;;12.80;99.90;;;;;;5078842;28;20407;-78
2023/02/18 09:05:24;;;;;;;1.40;1.00;;;12.70;99.90;;;;;;5072539;28;20900;-77
2023/02/18 09:07:50;;;;;;;0.98;0.88;;;13.00;99.90;;;;;;5054580;28;20472;-78
2023/02/18 09:10:15;;;;;;;1.20;0.73;;;13.20;99.90;;;;;;5063683;28;20418;-77
2023/02/18 09:12:41;;;;;;;1.30;0.77;;;13.10;99.90;;;;;;5072275;28;20966;-76
2023/02/18 09:15:07;;;;;;;0.80;0.80;;;12.90;99.90;;;;;;5072022;28;20384;-77
2023/02/18 09:17:33;;;;;;;0.70;0.70;;;;;;;;;;5072556;28;20404;-76
2023/02/18 09:19:58;;;;;;;1.20;0.80;;;12.60;99.90;;;;;;5070985;28;20391;-77
2023/02/18 09:22:24;;;;;;;1.00;0.80;;;;;;;;;;5072587;28;20415;-80
2023/02/18 09:24:50;;;;;;;1.20;0.90;;;13.40;99.90;;;;;;5071526;28;20394;-78
2023/02/18 09:27:15;;;;;;;1.50;0.97;;;13.60;99.90;;;;;;5071329;28;20756;-77
2023/02/18 09:29:41;;;;;;;1.50;1.00;;;13.40;99.90;;;;;;5072179;28;20392;-77
2023/02/18 09:32:08;;;;;;;1.20;0.90;;;13.60;99.90;;;;;;5073155;28;20413;-76
2023/02/18 09:34:34;;;;;;;1.05;0.95;;;13.20;99.90;;;;;;5073509;28;20430;-78
2023/02/18 09:37:00;;;;;;;1.27;0.80;;;13.60;99.90;;;;;;5071198;28;20769;-77
2023/02/18 09:39:25;;;;;;;1.80;1.30;;;13.50;99.90;;;;;;5071905;28;20516;-77
2023/02/18 09:41:54;;;;;;;1.20;0.70;;;13.40;99.90;;;;;;5072597;28;20490;-77
2023/02/18 09:44:32;;;;;;;1.20;1.00;;;13.00;99.90;;;;;;5076307;28;20376;-77
2023/02/18 09:47:06;;;;;;;1.10;0.90;;;13.40;99.90;;;;;;5078964;28;20456;-77
2023/02/18 09:49:35;;;;;;;1.02;0.80;;;13.10;99.90;;;;;;5077877;28;20379;-76
2023/02/18 09:52:23;;;;;;;1.00;0.90;;;13.30;99.90;;;;;;5079267;28;20440;-77
2023/02/18 09:54:50;;;;;;;0.90;0.80;;;13.70;99.90;;;;;;5085176;28;20414;-77
2023/02/18 09:57:28;;;;;;;1.40;0.88;;;13.40;99.90;;;;;;5073310;28;20605;-78
2023/02/18 10:00:01;;;;;;;0.90;0.70;;;13.80;99.90;;;;;;5072350;28;20722;-78
2023/02/18 10:02:27;;;;;;;1.00;0.70;;;13.80;99.90;;;;;;5075114;28;20556;-78
2023/02/18 10:04:55;;;;;;;0.65;0.63;;;13.80;99.90;;;;;;5074937;28;20392;-78
2023/02/18 10:07:30;;;;;;;1.30;0.70;;;13.20;99.90;;;;;;5068891;28;20423;-77
2023/02/18 10:09:58;;;;;;;1.60;0.90;;;13.20;99.90;;;;;;5068705;28;20400;-79
2023/02/18 10:12:25;;;;;;;0.93;0.77;;;13.80;99.90;;;;;;5073027;28;20883;-79
2023/02/18 10:14:56;;;;;;;1.10;1.00;;;15.40;99.90;;;;;;5072508;28;20861;-78
2023/02/18 10:17:24;;;;;;;0.88;0.80;;;13.80;99.90;;;;;;5071750;28;20384;-78
2023/02/18 10:19:52;;;;;;;1.00;0.90;;;13.90;99.90;;;;;;5071875;28;20391;-78
2023/02/18 10:22:21;;;;;;;1.90;0.80;;;14.10;99.90;;;;;;5071754;28;20478;-79
2023/02/18 10:24:52;;;;;;;1.17;0.90;;;14.30;99.90;;;;;;5070732;28;20404;-78
2023/02/18 10:27:34;;;;;;;1.08;0.85;;;14.40;99.90;;;;;;5071873;28;20390;-79
2023/02/18 10:30:15;;;;;;;1.00;0.90;;;;;;;;;;5076570;28;20375;-79
2023/02/18 10:32:44;;;;;;;0.70;0.70;;;14.30;99.90;;;;;;5076530;28;20386;-78
2023/02/18 10:35:35;;;;;;;0.90;0.80;;;14.10;99.90;;;;;;5071990;28;20402;-78
2023/02/18 10:38:33;;;;;;;1.50;0.80;;;14.30;99.90;;;;;;5070775;28;20399;-78
2023/02/18 10:40:59;;;;;;;0.90;0.70;;;;;;;;;;5070640;28;20886;-78
2023/02/18 10:43:49;;;;;;;0.82;0.80;;;14.90;99.90;;;;;;5070381;28;20407;-78
2023/02/18 10:46:41;;;;;;;2.80;0.90;;;14.90;99.90;;;;;;5071765;28;20411;-78
2023/02/18 10:49:15;;;;;;;1.10;0.95;;;14.80;99.90;;;;;;5071685;28;20824;-78
2023/02/18 10:51:50;;;;;;;1.98;0.90;;;17.00;99.90;;;;;;5071460;28;20379;-79
2023/02/18 10:54:15;;;;;;;1.70;0.90;;;14.60;99.90;;;;;;5071850;28;20433;-78
2023/02/18 10:56:47;;;;;;;0.90;0.77;;;14.70;99.90;;;;;;5071851;28;20375;-78
2023/02/18 10:59:26;;;;;;;1.20;0.90;;;14.70;99.90;;;;;;5071660;28;20467;-78
2023/02/18 11:01:57;;;;;;;1.10;0.98;;;14.00;99.90;;;;;;5069755;28;20404;-78
2023/02/18 11:04:32;;;;;;;1.63;0.70;;;14.40;99.90;;;;;;5078434;22;20433;-77
2023/02/18 11:07:04;;;;;;;1.10;0.90;;;14.30;99.90;;;;;;5031950;28;20472;-76
2023/02/18 11:09:40;;;;;;;1.03;0.90;;;14.10;99.90;;;;;;5032490;28;20388;-75
2023/02/18 11:12:21;;;;;;;0.80;0.63;;;14.70;99.90;;;;;;5050089;28;20423;-76
2023/02/18 11:15:01;;;;;;;0.85;0.73;;;14.90;99.90;;;;;;5050013;28;20398;-75
2023/02/18 11:17:30;;;;;;;0.80;0.73;;;14.10;99.90;;;;;;5053262;28;20400;-76
2023/02/18 11:20:02;;;;;;;2.03;0.88;;;14.90;99.90;;;;;;5053890;28;20397;-77
2023/02/18 11:22:35;;;;;;;1.20;0.80;;;15.00;99.90;;;;;;5036082;28;20492;-76
2023/02/18 11:25:03;;;;;;;0.80;0.70;;;15.00;99.90;;;;;;5052990;28;20404;-76
2023/02/18 11:27:45;;;;;;;1.95;0.90;;;14.60;99.90;;;;;;5053200;28;20385;-76
2023/02/18 11:30:35;;;;;;;0.70;0.68;;;14.80;99.90;;;;;;5053533;28;20480;-76
2023/02/18 11:33:14;;;;;;;0.80;0.60;;;15.30;99.90;;;;;;5028343;28;20451;-76
2023/02/18 11:35:49;;;;;;;0.80;0.70;;;15.00;99.90;;;;;;5053310;28;20377;-77
2023/02/18 11:38:33;;;;;;;0.70;0.70;;;15.30;99.90;;;;;;5052876;28;20389;-76
2023/02/18 11:41:21;;;;;;;1.40;0.80;;;15.10;99.90;;;;;;5053277;28;20488;-76
2023/02/18 11:43:52;;;;;;;1.10;0.90;;;15.70;99.30;;;;;;5053247;28;20874;-76
2023/02/18 11:46:23;;;;;;;2.15;0.73;;;15.30;99.90;;;;;;5035075;28;20389;-76
2023/02/18 11:48:50;;;;;;;1.70;0.70;;;16.00;99.90;;;;;;5034817;28;20408;-75
2023/02/18 11:51:35;;;;;;;1.30;0.80;;;14.50;99.90;;;;;;5052994;28;20465;-75
2023/02/18 11:54:05;;;;;;;0.70;0.50;;;14.50;99.90;;;;;;5016258;28;20406;-76
2023/02/18 11:56:39;;;;;;;0.90;0.77;;;14.80;99.90;;;;;;5047531;28;20451;-76
2023/02/18 11:59:08;;;;;;;1.10;0.80;;;14.40;99.90;;;;;;5053084;28;20810;-77
2023/02/18 12:01:49;;;;;;;0.85;0.80;;;14.90;99.90;;;;;;5053009;28;20409;-77
2023/02/18 12:04:24;;;;;;;0.90;0.73;;;14.70;99.90;;;;;;5037300;28;20416;-76
2023/02/18 12:07:24;;;;;;;0.75;0.70;;;15.20;99.90;;;;;;5042362;28;20446;-77
2023/02/18 12:10:01;;;;;;;1.00;0.90;;;15.20;99.90;;;;;;5018369;28;20478;-77
2023/02/18 12:12:32;;;;;;;0.77;0.70;;;14.60;99.90;;;;;;5048648;28;20846;-77
2023/02/18 12:14:59;;;;;;;0.90;0.90;;;15.10;99.90;;;;;;5040793;28;20397;-77
2023/02/18 12:17:49;;;;;;;0.80;0.70;;;14.90;99.90;;;;;;5036233;28;20819;-75
2023/02/18 12:20:42;;;;;;;1.20;0.90;;;14.60;99.90;;;;;;5054010;28;20443;-76
2023/02/18 12:23:21;;;;;;;0.93;0.80;;;14.80;99.90;;;;;;5052520;28;20405;-76
2023/02/18 12:26:02;;;;;;;1.10;0.70;;;14.50;99.90;;;;;;5051632;28;20385;-75
2023/02/18 12:28:40;;;;;;;1.20;0.70;;;14.50;99.90;;;;;;5051680;28;20435;-76
2023/02/18 12:31:33;;;;;;;0.90;0.80;;;14.20;99.90;;;;;;5034489;28;20891;-76
2023/02/18 12:34:09;;;;;;;2.05;0.80;;;14.40;99.90;;;;;;5034339;28;20890;-76
2023/02/18 12:37:18;;;;;;;1.30;0.90;;;14.90;99.90;;;;;;5053011;28;20879;-76
2023/02/18 12:40:05;;;;;;;1.10;0.90;;;14.90;99.90;;;;;;5035256;28;20394;-76
2023/02/18 12:42:40;;;;;;;1.40;0.90;;;14.40;99.90;;;;;;5053143;28;20484;-76
2023/02/18 12:45:27;;;;;;;1.63;1.10;;;14.90;99.90;;;;;;5052305;28;20388;-75
2023/02/18 12:48:08;;;;;;;1.80;0.80;;;15.00;99.90;;;;;;5053688;28;20887;-75
2023/02/18 12:50:54;;;;;;;0.90;0.80;;;15.40;98.40;;;;;;5052873;28;20432;-75
2023/02/18 12:53:29;;;;;;;1.60;1.30;;;14.80;99.90;;;;;;5053648;28;20889;-75
2023/02/18 12:56:00;;;;;;;1.67;1.23;;;15.10;98.70;;;;;;5056762;28;20377;-76
2023/02/18 12:58:32;;;;;;;1.10;1.00;;;;;;;;;;5036317;28;20450;-75
2023/02/18 13:01:12;;;;;;;1.00;0.90;;;16.00;99.90;;;;;;5027026;28;20398;-76
2023/02/18 13:03:48;;;;;;;2.00;1.00;;;;;;;;;;4993559;28;20824;-76
2023/02/18 13:06:41;;;;;;;1.30;1.00;;;15.90;95.40;;;;;;4997203;28;20459;-76